createdAt,value
2022-12-16T00:00:08.855Z,100569.25
2022-12-16T00:02:36.315Z,100564.03
2022-12-16T00:05:04.067Z,100565.78
2022-12-16T00:07:31.898Z,100564.03
2022-12-16T00:09:58.842Z,100569.34
2022-12-16T00:12:25.903Z,100572.03
2022-12-16T00:14:52.950Z,100561.53
2022-12-16T00:17:22.273Z,100563.28
2022-12-16T00:19:49.736Z,100560.72
2022-12-16T00:22:17.576Z,100570.38
2022-12-16T00:24:44.625Z,100575.69
2022-12-16T00:27:11.649Z,100567.88
2022-12-16T00:29:38.579Z,100572.31
2022-12-16T00:32:06.379Z,100573.22
2022-12-16T00:34:33.458Z,100574.06
2022-12-16T00:37:00.382Z,100579.31
2022-12-16T00:39:27.348Z,100578.47
2022-12-16T00:41:54.341Z,100585.47
2022-12-16T00:44:21.878Z,100585.47
2022-12-16T00:46:48.845Z,100581.97
2022-12-16T00:49:15.735Z,100579.34
2022-12-16T00:51:42.665Z,100575.84
2022-12-16T00:54:09.686Z,100580.34
2022-12-16T00:56:36.902Z,100581.28
2022-12-16T00:59:03.801Z,100574.31
2022-12-16T01:01:30.849Z,100577.00
2022-12-16T01:03:57.994Z,100577.84
2022-12-16T01:06:25.533Z,100571.78
2022-12-16T01:08:52.425Z,100564.03
2022-12-16T01:11:21.962Z,100572.84
2022-12-16T01:13:52.485Z,100581.59
2022-12-16T01:16:23.032Z,100579.88
2022-12-16T01:18:49.942Z,100579.09
2022-12-16T01:21:16.898Z,100588.75
2022-12-16T01:23:43.800Z,100592.22
2022-12-16T01:26:16.804Z,100593.16
2022-12-16T01:28:44.449Z,100595.78
2022-12-16T01:31:12.358Z,100601.03
2022-12-16T01:33:39.644Z,100608.03
2022-12-16T01:36:09.062Z,100613.28
2022-12-16T01:38:36.900Z,100605.41
2022-12-16T01:41:04.984Z,100614.16
2022-12-16T01:43:38.325Z,100602.91
2022-12-16T01:46:10.188Z,100601.22
2022-12-16T01:49:01.792Z,100602.97
2022-12-16T01:51:39.913Z,100609.97
2022-12-16T01:54:42.404Z,100617.06
2022-12-16T01:57:16.484Z,100615.38
2022-12-16T01:59:47.216Z,100614.50
2022-12-16T02:02:14.852Z,100605.81
2022-12-16T02:05:04.292Z,100617.13
2022-12-16T02:07:31.265Z,100609.28
2022-12-16T02:09:59.981Z,100617.13
2022-12-16T02:13:02.038Z,100611.97
2022-12-16T02:15:41.781Z,100615.44
2022-12-16T02:18:46.605Z,100627.72
2022-12-16T02:21:37.676Z,100621.59
2022-12-16T02:24:54.913Z,100618.16
2022-12-16T02:27:55.944Z,100620.84
2022-12-16T02:30:43.331Z,100626.22
2022-12-16T02:33:38.529Z,100625.47
2022-12-16T02:36:35.442Z,100614.19
2022-12-16T02:39:15.387Z,100623.75
2022-12-16T02:42:10.567Z,100630.72
2022-12-16T02:45:18.438Z,100622.84
2022-12-16T02:47:46.586Z,100621.97
2022-12-16T02:50:35.185Z,100621.97
2022-12-16T02:53:03.076Z,100623.72
2022-12-16T02:56:09.269Z,100638.50
2022-12-16T02:59:23.805Z,100636.78
2022-12-16T03:02:00.916Z,100627.22
2022-12-16T03:04:48.717Z,100636.00
2022-12-16T03:07:18.887Z,100634.28
2022-12-16T03:09:47.535Z,100636.88
2022-12-16T03:12:18.557Z,100636.00
2022-12-16T03:14:49.551Z,100649.06
2022-12-16T03:17:18.842Z,100637.75
2022-12-16T03:19:54.953Z,100642.91
2022-12-16T03:22:29.406Z,100651.66
2022-12-16T03:24:56.675Z,100638.59
2022-12-16T03:27:46.194Z,100649.94
2022-12-16T03:30:36.699Z,100639.50
2022-12-16T03:33:24.621Z,100650.84
2022-12-16T03:35:58.618Z,100655.19
2022-12-16T03:38:27.967Z,100658.69
2022-12-16T03:40:56.153Z,100657.78
2022-12-16T03:43:24.379Z,100653.44
2022-12-16T03:45:55.233Z,100651.69
2022-12-16T03:48:26.401Z,100651.75
2022-12-16T03:50:53.597Z,100657.91
2022-12-16T03:53:26.205Z,100655.34
2022-12-16T03:55:56.176Z,100665.75
2022-12-16T03:58:23.064Z,100660.53
2022-12-16T04:00:50.825Z,100667.53
2022-12-16T04:03:17.848Z,100659.69
2022-12-16T04:05:46.028Z,100662.34
2022-12-16T04:08:13.001Z,100663.25
2022-12-16T04:10:58.349Z,100663.28
2022-12-16T04:13:43.935Z,100657.22
2022-12-16T04:16:35.327Z,100667.69
2022-12-16T04:19:21.965Z,100668.59
2022-12-16T04:22:08.082Z,100676.44
2022-12-16T04:24:36.069Z,100672.97
2022-12-16T04:27:21.652Z,100672.97
2022-12-16T04:30:07.710Z,100679.06
2022-12-16T04:32:53.496Z,100686.91
2022-12-16T04:35:39.155Z,100689.50
2022-12-16T04:38:24.801Z,100700.81
2022-12-16T04:41:10.290Z,100693.00
2022-12-16T04:43:56.284Z,100699.91
2022-12-16T04:46:41.908Z,100699.91
2022-12-16T04:49:28.234Z,100696.47
2022-12-16T04:52:13.844Z,100702.53
2022-12-16T04:54:59.696Z,100698.22
2022-12-16T04:57:58.859Z,100706.88
2022-12-16T05:00:44.446Z,100720.88
2022-12-16T05:03:30.720Z,100720.00
2022-12-16T05:06:16.498Z,100707.84
2022-12-16T05:09:02.391Z,100720.91
2022-12-16T05:11:47.894Z,100728.75
2022-12-16T05:14:33.192Z,100723.53
2022-12-16T05:17:18.701Z,100729.63
2022-12-16T05:20:03.993Z,100731.41
2022-12-16T05:22:49.784Z,100741.88
2022-12-16T05:25:35.400Z,100737.50
2022-12-16T05:28:20.984Z,100741.03
2022-12-16T05:31:06.521Z,100741.91
2022-12-16T05:33:52.473Z,100751.50
2022-12-16T05:36:38.120Z,100743.66
2022-12-16T05:39:23.729Z,100755.00
2022-12-16T05:42:09.957Z,100767.19
2022-12-16T05:44:55.860Z,100755.88
2022-12-16T05:47:41.665Z,100766.34
2022-12-16T05:50:28.942Z,100758.50
2022-12-16T05:53:26.434Z,100764.59
2022-12-16T05:56:12.022Z,100763.75
2022-12-16T05:58:57.399Z,100769.84
2022-12-16T06:01:43.012Z,100778.53
2022-12-16T06:04:29.961Z,100779.41
2022-12-16T06:07:15.406Z,100780.25
2022-12-16T06:10:00.781Z,100786.34
2022-12-16T06:12:47.491Z,100788.13
2022-12-16T06:15:33.236Z,100794.22
2022-12-16T06:18:18.808Z,100800.31
2022-12-16T06:21:04.137Z,100802.06
2022-12-16T06:23:50.293Z,100803.81
2022-12-16T06:26:35.742Z,100812.50
2022-12-16T06:29:21.180Z,100815.13
2022-12-16T06:32:07.140Z,100818.63
2022-12-16T06:34:53.423Z,100822.97
2022-12-16T06:37:39.088Z,100815.16
2022-12-16T06:40:25.143Z,100823.88
2022-12-16T06:43:11.416Z,100825.63
2022-12-16T06:45:57.087Z,100826.47
2022-12-16T06:48:42.641Z,100826.50
2022-12-16T06:51:28.264Z,100836.06
2022-12-16T06:54:13.795Z,100846.53
2022-12-16T06:56:59.593Z,100847.38
2022-12-16T06:59:45.044Z,100856.09
2022-12-16T07:02:32.659Z,100855.22
2022-12-16T07:05:18.599Z,100859.56
2022-12-16T07:08:11.363Z,100865.69
2022-12-16T07:11:04.877Z,100868.28
2022-12-16T07:14:01.736Z,100871.75
2022-12-16T07:16:47.375Z,100883.94
2022-12-16T07:19:34.011Z,100878.72
2022-12-16T07:22:20.083Z,100886.56
2022-12-16T07:25:05.731Z,100892.66
2022-12-16T07:27:51.062Z,100898.75
2022-12-16T07:30:36.540Z,100894.41
2022-12-16T07:33:22.639Z,100901.34
2022-12-16T07:36:08.065Z,100915.28
2022-12-16T07:38:53.351Z,100920.50
2022-12-16T07:41:38.858Z,100932.66
2022-12-16T07:44:24.564Z,100930.97
2022-12-16T07:47:10.391Z,100931.81
2022-12-16T07:49:56.342Z,100937.88
2022-12-16T07:52:41.903Z,100948.34
2022-12-16T07:55:28.013Z,100959.66
2022-12-16T07:58:13.589Z,100957.94
2022-12-16T08:01:03.856Z,100964.00
2022-12-16T08:03:55.166Z,100963.13
2022-12-16T08:06:42.271Z,100969.22
2022-12-16T08:09:27.871Z,100963.13
2022-12-16T08:12:13.974Z,100977.94
2022-12-16T08:14:59.961Z,100978.81
2022-12-16T08:17:46.005Z,100979.69
2022-12-16T08:20:31.687Z,100997.97
2022-12-16T08:23:17.416Z,100991.00
2022-12-16T08:26:03.141Z,100989.25
2022-12-16T08:28:48.783Z,100993.63
2022-12-16T08:31:34.712Z,101000.56
2022-12-16T08:34:19.985Z,101008.41
2022-12-16T08:37:05.605Z,101018.84
2022-12-16T08:40:10.635Z,101020.63
2022-12-16T08:42:56.980Z,101016.25
2022-12-16T08:45:43.547Z,101023.22
2022-12-16T08:48:29.425Z,101022.34
2022-12-16T08:51:14.966Z,101029.31
2022-12-16T08:54:00.863Z,101036.25
2022-12-16T08:56:46.284Z,101034.50
2022-12-16T08:59:31.902Z,101033.59
2022-12-16T09:02:17.735Z,101037.94
2022-12-16T09:05:03.900Z,101044.00
2022-12-16T09:07:49.379Z,101038.72
2022-12-16T09:10:39.788Z,101045.69
2022-12-16T09:13:32.274Z,101050.00
2022-12-16T09:16:19.941Z,101051.72
2022-12-16T09:19:06.044Z,101055.97
2022-12-16T09:21:51.883Z,101052.34
2022-12-16T09:24:37.550Z,101052.19
2022-12-16T09:27:23.133Z,101056.38
2022-12-16T09:30:08.588Z,101054.34
2022-12-16T09:32:54.362Z,101051.41
2022-12-16T09:35:39.827Z,101051.91
2022-12-16T09:38:25.314Z,101054.09
2022-12-16T09:41:11.891Z,101051.81
2022-12-16T09:44:21.606Z,101051.13
2022-12-16T09:47:43.235Z,101063.53
2022-12-16T09:50:42.403Z,101057.44
2022-12-16T09:53:33.410Z,101052.50
2022-12-16T09:56:24.682Z,101059.00
2022-12-16T09:59:19.431Z,101061.19
2022-12-16T10:02:05.755Z,101068.59
2022-12-16T10:04:51.220Z,101066.06
2022-12-16T10:07:50.450Z,101065.22
2022-12-16T10:11:15.360Z,101064.28
2022-12-16T10:14:28.328Z,101065.88
2022-12-16T10:17:31.739Z,101068.59
2022-12-16T10:20:51.622Z,101069.75
2022-12-16T10:24:29.700Z,101069.94
2022-12-16T10:27:32.623Z,101069.78
2022-12-16T10:30:20.354Z,101072.34
2022-12-16T10:33:08.706Z,101061.72
2022-12-16T10:36:24.031Z,101052.84
2022-12-16T10:39:19.116Z,101046.13
2022-12-16T10:42:09.433Z,101051.19
2022-12-16T10:45:11.052Z,101062.88
2022-12-16T10:47:56.659Z,101050.75
2022-12-16T10:50:42.297Z,101061.72
2022-12-16T10:53:43.688Z,101063.66
2022-12-16T10:56:40.999Z,101054.63
2022-12-16T10:59:27.423Z,101062.06
2022-12-16T11:02:39.644Z,101047.47
2022-12-16T11:05:49.183Z,101052.72
2022-12-16T11:08:55.532Z,101064.22
2022-12-16T11:11:48.699Z,101058.09
2022-12-16T11:15:12.469Z,101063.53
2022-12-16T11:17:55.930Z,101062.09
2022-12-16T11:20:44.054Z,101069.59
2022-12-16T11:23:40.442Z,101064.94
2022-12-16T11:26:38.473Z,101069.53
2022-12-16T11:29:36.941Z,101074.47
2022-12-16T11:32:41.218Z,101064.19
2022-12-16T11:35:36.715Z,101059.00
2022-12-16T11:38:24.841Z,101068.31
2022-12-16T11:41:11.042Z,101061.38
2022-12-16T11:44:00.212Z,101072.25
2022-12-16T11:46:47.572Z,101071.41
2022-12-16T11:49:49.628Z,101065.97
2022-12-16T11:52:40.290Z,101071.41
2022-12-16T11:59:04.924Z,101061.66
2022-12-16T12:02:05.366Z,101077.44
2022-12-16T12:04:51.102Z,101072.97
2022-12-16T12:07:57.619Z,101079.94
2022-12-16T12:11:22.983Z,101080.09
2022-12-16T12:14:24.458Z,101085.84
2022-12-16T12:17:50.904Z,101085.97
2022-12-16T12:21:05.477Z,101090.69
2022-12-16T12:24:46.918Z,101095.72
2022-12-16T12:27:47.990Z,101088.25
2022-12-16T12:30:37.380Z,101090.47
2022-12-16T12:33:50.852Z,101099.88
2022-12-16T12:36:43.243Z,101097.31
2022-12-16T12:39:41.641Z,101091.59
2022-12-16T12:42:56.371Z,101097.66
2022-12-16T12:45:48.506Z,101103.00
2022-12-16T12:48:47.600Z,101099.69
2022-12-16T12:52:01.788Z,101103.81
2022-12-16T12:55:19.528Z,101100.47
2022-12-16T12:58:06.999Z,101098.28
2022-12-16T13:01:00.903Z,101104.19
2022-12-16T13:04:07.805Z,101104.25
2022-12-16T13:06:56.237Z,101112.78
2022-12-16T13:09:44.877Z,101116.91
2022-12-16T13:12:30.494Z,101117.19
2022-12-16T13:15:38.932Z,101108.09
2022-12-16T13:18:24.534Z,101108.03
2022-12-16T13:21:12.789Z,101117.00
2022-12-16T13:24:01.793Z,101117.88
2022-12-16T13:26:51.080Z,101121.19
2022-12-16T13:29:44.557Z,101129.19
2022-12-16T13:32:42.945Z,101126.78
2022-12-16T13:35:28.588Z,101127.84
2022-12-16T13:38:22.232Z,101132.88
2022-12-16T13:41:20.496Z,101132.22
2022-12-16T13:44:09.732Z,101130.16
2022-12-16T13:47:13.557Z,101148.25
2022-12-16T13:50:09.644Z,101152.59
2022-12-16T13:53:15.245Z,101153.25
2022-12-16T13:56:17.769Z,101159.22
2022-12-16T13:59:18.229Z,101158.06
2022-12-16T14:02:16.285Z,101162.13
2022-12-16T14:05:12.434Z,101171.59
2022-12-16T14:07:59.840Z,101172.91
2022-12-16T14:10:48.685Z,101182.06
2022-12-16T14:14:00.445Z,101178.81
2022-12-16T14:17:12.349Z,101184.78
2022-12-16T14:20:22.231Z,101193.44
2022-12-16T14:23:54.502Z,101193.06
2022-12-16T14:26:32.962Z,101197.97
2022-12-16T14:29:21.028Z,101195.88
2022-12-16T14:32:08.125Z,101197.19
2022-12-16T14:34:55.959Z,101206.69
2022-12-16T14:37:57.412Z,101210.91
2022-12-16T14:40:49.478Z,101217.97
2022-12-16T14:43:45.545Z,101220.47
2022-12-16T14:46:48.693Z,101229.34
2022-12-16T14:49:46.860Z,101222.44
2022-12-16T14:52:53.804Z,101227.16
2022-12-16T14:55:52.467Z,101241.97
2022-12-16T14:58:41.739Z,101233.09
2022-12-16T15:01:34.272Z,101237.28
2022-12-16T15:04:44.347Z,101244.63
2022-12-16T15:07:32.864Z,101241.47
2022-12-16T15:10:19.553Z,101242.63
2022-12-16T15:13:07.120Z,101252.47
2022-12-16T15:16:05.313Z,101254.41
2022-12-16T15:19:05.197Z,101271.41
2022-12-16T15:21:54.078Z,101265.47
2022-12-16T15:24:44.529Z,101269.44
2022-12-16T15:27:55.763Z,101272.50
2022-12-16T15:31:04.238Z,101285.16
2022-12-16T15:33:54.652Z,101288.97
2022-12-16T15:36:52.608Z,101289.16
2022-12-16T15:39:54.943Z,101293.78
2022-12-16T15:42:46.235Z,101302.81
2022-12-16T15:45:45.386Z,101314.47
2022-12-16T15:48:53.114Z,101320.81
2022-12-16T15:51:49.803Z,101326.13
2022-12-16T15:54:39.554Z,101325.47
2022-12-16T15:57:53.269Z,101334.50
2022-12-16T16:00:50.042Z,101343.50
2022-12-16T16:03:46.072Z,101349.00
2022-12-16T16:06:40.277Z,101351.88
2022-12-16T16:09:45.772Z,101352.13
2022-12-16T16:12:34.620Z,101354.22
2022-12-16T16:15:20.805Z,101365.06
2022-12-16T16:18:11.598Z,101358.16
2022-12-16T16:20:57.037Z,101358.25
2022-12-16T16:23:54.039Z,101367.06
2022-12-16T16:26:43.690Z,101360.03
2022-12-16T16:29:30.203Z,101365.38
2022-12-16T16:32:15.767Z,101353.94
2022-12-16T16:35:02.898Z,101369.75
2022-12-16T16:37:48.504Z,101372.50
2022-12-16T16:40:55.311Z,101372.59
2022-12-16T16:43:41.144Z,101365.69
2022-12-16T16:46:40.648Z,101373.75
2022-12-16T16:49:31.428Z,101373.03
2022-12-16T16:52:16.998Z,101380.22
2022-12-16T16:55:02.577Z,101379.47
2022-12-16T16:57:53.386Z,101387.47
2022-12-16T17:00:39.313Z,101390.03
2022-12-16T17:03:25.037Z,101393.56
2022-12-16T17:06:10.451Z,101397.25
2022-12-16T17:08:56.169Z,101393.84
2022-12-16T17:11:42.282Z,101394.00
2022-12-16T17:14:34.548Z,101416.03
2022-12-16T17:17:20.805Z,101410.88
2022-12-16T17:20:07.245Z,101410.13
2022-12-16T17:22:52.576Z,101408.53
2022-12-16T17:25:39.353Z,101417.44
2022-12-16T17:28:25.877Z,101420.16
2022-12-16T17:31:12.225Z,101423.75
2022-12-16T17:33:57.795Z,101421.28
2022-12-16T17:37:03.486Z,101423.16
2022-12-16T17:39:49.119Z,101425.88
2022-12-16T17:42:35.125Z,101432.94
2022-12-16T17:45:20.721Z,101430.41
2022-12-16T17:48:06.504Z,101442.81
2022-12-16T17:50:51.909Z,101442.72
2022-12-16T17:53:37.575Z,101434.06
2022-12-16T17:56:24.714Z,101457.69
2022-12-16T17:59:11.330Z,101464.81
2022-12-16T18:01:56.849Z,101467.47
2022-12-16T18:04:42.772Z,101481.56
2022-12-16T18:07:28.186Z,101476.41
2022-12-16T18:10:13.716Z,101482.63
2022-12-16T18:13:00.133Z,101485.34
2022-12-16T18:15:46.051Z,101499.38
2022-12-16T18:18:31.809Z,101491.53
2022-12-16T18:21:31.598Z,101491.66
2022-12-16T18:24:17.179Z,101502.19
2022-12-16T18:27:03.027Z,101497.81
2022-12-16T18:29:48.765Z,101499.56
2022-12-16T18:32:35.471Z,101512.75
2022-12-16T18:35:21.651Z,101518.06
2022-12-16T18:38:10.030Z,101514.63
2022-12-16T18:40:57.614Z,101515.53
2022-12-16T18:43:57.245Z,101518.19
2022-12-16T18:46:43.051Z,101522.56
2022-12-16T18:49:34.793Z,101525.22
2022-12-16T18:52:20.564Z,101525.22
2022-12-16T18:55:06.260Z,101518.25
2022-12-16T18:57:52.207Z,101530.53
2022-12-16T19:00:38.033Z,101534.94
2022-12-16T19:03:23.791Z,101528.78
2022-12-16T19:06:21.707Z,101526.16
2022-12-16T19:09:07.136Z,101531.34
2022-12-16T19:11:53.089Z,101537.53
2022-12-16T19:14:38.636Z,101529.69
2022-12-16T19:17:24.209Z,101532.41
2022-12-16T19:20:10.441Z,101529.81
2022-12-16T19:22:56.230Z,101532.50
2022-12-16T19:25:42.579Z,101529.09
2022-12-16T19:28:34.983Z,101537.94
2022-12-16T19:31:21.260Z,101538.06
2022-12-16T19:34:07.143Z,101532.00
2022-12-16T19:36:53.282Z,101546.09
2022-12-16T19:39:39.443Z,101555.84
2022-12-16T19:42:25.174Z,101556.78
2022-12-16T19:45:21.982Z,101560.28
2022-12-16T19:48:07.815Z,101562.94
2022-12-16T19:50:56.412Z,101562.13
2022-12-16T19:53:42.457Z,101579.63
2022-12-16T19:56:28.136Z,101570.88
2022-12-16T19:59:13.597Z,101587.50
2022-12-16T20:01:59.551Z,101583.13
2022-12-16T20:04:45.329Z,101588.34
2022-12-16T20:07:30.812Z,101584.00
2022-12-16T20:10:16.513Z,101589.22
2022-12-16T20:13:02.254Z,101595.34
2022-12-16T20:15:47.590Z,101604.97
2022-12-16T20:18:33.293Z,101609.38
2022-12-16T20:21:23.780Z,101605.84
2022-12-16T20:24:09.379Z,101603.25
2022-12-16T20:26:59.779Z,101615.53
2022-12-16T20:29:45.932Z,101611.22
2022-12-16T20:32:31.508Z,101607.69
2022-12-16T20:35:17.074Z,101612.94
2022-12-16T20:38:02.449Z,101610.31
2022-12-16T20:40:48.486Z,101619.91
2022-12-16T20:43:34.201Z,101615.53
2022-12-16T20:46:19.640Z,101621.63
2022-12-16T20:49:06.481Z,101632.97
2022-12-16T20:51:52.330Z,101641.72
2022-12-16T20:54:37.952Z,101632.91
2022-12-16T20:57:23.500Z,101635.53
2022-12-16T21:00:08.838Z,101633.78
2022-12-16T21:02:56.025Z,101635.56
2022-12-16T21:05:41.852Z,101641.69
2022-12-16T21:08:27.535Z,101650.47
2022-12-16T21:11:16.385Z,101641.50
2022-12-16T21:14:02.403Z,101640.31
2022-12-16T21:16:48.043Z,101642.50
2022-12-16T21:19:34.659Z,101638.47
2022-12-16T21:22:20.365Z,101638.00
2022-12-16T21:25:06.767Z,101641.88
2022-12-16T21:27:52.317Z,101653.53
2022-12-16T21:30:38.576Z,101656.38
2022-12-16T21:33:24.192Z,101661.75
2022-12-16T21:36:11.622Z,101671.44
2022-12-16T21:38:57.282Z,101680.25
2022-12-16T21:41:43.060Z,101682.94
2022-12-16T21:44:28.426Z,101687.34
2022-12-16T21:47:13.836Z,101690.88
2022-12-16T21:50:00.997Z,101682.13
2022-12-16T21:52:46.873Z,101690.94
2022-12-16T21:55:32.614Z,101683.03
2022-12-16T21:58:18.390Z,101692.69
2022-12-16T22:01:13.907Z,101687.44
2022-12-16T22:03:59.842Z,101693.56
2022-12-16T22:06:49.113Z,101694.44
2022-12-16T22:09:35.433Z,101700.56
2022-12-16T22:12:21.177Z,101701.44
2022-12-16T22:15:06.911Z,101711.94
2022-12-16T22:20:59.186Z,101705.81
2022-12-16T22:23:48.584Z,101725.06
2022-12-16T22:26:34.048Z,101714.56
2022-12-16T22:29:19.771Z,101712.84
2022-12-16T22:32:05.550Z,101716.31
2022-12-16T22:34:50.966Z,101714.56
2022-12-16T22:37:37.986Z,101721.56
2022-12-16T22:40:24.602Z,101719.81
2022-12-16T22:43:10.426Z,101723.31
2022-12-16T22:45:57.714Z,101718.06
2022-12-16T22:48:45.472Z,101723.31
2022-12-16T22:51:32.746Z,101729.41
2022-12-16T22:54:18.947Z,101723.31
2022-12-16T22:57:04.796Z,101734.66
2022-12-16T22:59:50.432Z,101725.91
2022-12-16T23:02:35.772Z,101737.31
2022-12-16T23:08:29.024Z,101725.91
2022-12-16T23:11:19.405Z,101729.38
2022-12-16T23:14:05.452Z,101730.25
2022-12-16T23:16:51.092Z,101738.13
2022-12-16T23:19:38.847Z,101741.63
2022-12-16T23:22:24.503Z,101738.94
2022-12-16T23:25:10.040Z,101743.28
2022-12-16T23:27:55.864Z,101747.66
2022-12-16T23:30:46.292Z,101748.53
2022-12-16T23:32:30.620Z,101704.94
2022-12-16T23:32:31.314Z,101729.41
2022-12-16T23:33:31.932Z,101748.53
2022-12-16T23:36:17.418Z,101750.28
2022-12-16T23:39:03.265Z,101741.53
2022-12-16T23:41:48.609Z,101753.78
2022-12-16T23:44:34.296Z,101737.13
2022-12-16T23:47:20.239Z,101740.66
2022-12-16T23:50:06.446Z,101741.53
2022-12-16T23:52:53.764Z,101743.28
2022-12-16T23:55:42.343Z,101750.25
2022-12-16T23:58:28.805Z,101742.34
